createdAt,value
2018-05-25T00:00:18.805Z,254.23
2018-05-25T00:02:45.981Z,222.40
2018-05-25T00:05:12.425Z,243.23
2018-05-25T00:07:38.895Z,241.00
2018-05-25T00:10:05.316Z,246.90
2018-05-25T00:12:32.777Z,232.23
2018-05-25T00:15:00.001Z,228.40
2018-05-25T00:17:26.507Z,229.33
2018-05-25T00:20:03.383Z,234.40
2018-05-25T00:22:30.621Z,228.70
2018-05-25T00:24:57.072Z,239.67
2018-05-25T00:27:24.233Z,237.37
2018-05-25T00:29:50.670Z,235.17
2018-05-25T00:32:17.873Z,224.77
2018-05-25T00:34:44.358Z,231.67
2018-05-25T00:37:11.506Z,233.60
2018-05-25T00:39:37.987Z,240.53
2018-05-25T00:42:04.408Z,236.73
2018-05-25T00:44:30.893Z,241.70
2018-05-25T00:46:57.318Z,242.07
2018-05-25T00:49:23.789Z,247.00
2018-05-25T00:51:50.968Z,246.10
2018-05-25T00:54:17.405Z,262.53
2018-05-25T00:56:43.830Z,253.83
2018-05-25T00:59:10.295Z,241.67
2018-05-25T01:01:36.694Z,249.70
2018-05-25T01:04:03.159Z,252.97
2018-05-25T01:06:29.617Z,218.90
2018-05-25T01:08:56.090Z,228.77
2018-05-25T01:11:22.604Z,258.07
2018-05-25T01:13:49.054Z,297.10
2018-05-25T01:16:16.520Z,282.73
2018-05-25T01:18:43.045Z,297.87
2018-05-25T01:21:09.546Z,293.17
2018-05-25T01:23:45.331Z,270.37
2018-05-25T01:26:11.797Z,264.40
2018-05-25T01:28:39.068Z,248.83
2018-05-25T01:31:05.585Z,261.53
2018-05-25T01:33:32.854Z,283.50
2018-05-25T01:35:59.372Z,274.07
2018-05-25T01:38:26.599Z,261.73
2018-05-25T01:40:53.823Z,267.23
2018-05-25T01:43:21.302Z,253.20
2018-05-25T01:45:48.534Z,309.83
2018-05-25T01:48:14.996Z,264.70
2018-05-25T01:50:41.460Z,219.00
2018-05-25T01:53:08.686Z,232.23
2018-05-25T01:55:36.180Z,246.47
2018-05-25T01:58:29.688Z,223.00
2018-05-25T02:00:56.233Z,218.77
2018-05-25T02:03:22.797Z,204.53
2018-05-25T02:05:50.101Z,197.83
2018-05-25T02:08:16.630Z,195.13
2018-05-25T02:10:43.154Z,201.43
2018-05-25T02:13:09.676Z,189.53
2018-05-25T02:15:36.223Z,165.80
2018-05-25T02:18:02.746Z,188.97
2018-05-25T02:20:29.288Z,180.00
2018-05-25T02:22:55.853Z,245.13
2018-05-25T02:25:22.393Z,199.13
2018-05-25T02:27:48.930Z,216.60
2018-05-25T02:30:15.523Z,208.73
2018-05-25T02:32:42.046Z,216.40
2018-05-25T02:35:08.623Z,216.93
2018-05-25T02:37:35.146Z,176.87
2018-05-25T02:40:01.684Z,217.37
2018-05-25T02:42:29.085Z,204.13
2018-05-25T02:44:55.604Z,226.87
2018-05-25T02:47:22.124Z,245.13
2018-05-25T02:49:48.700Z,250.93
2018-05-25T02:52:15.250Z,227.63
2018-05-25T02:54:41.812Z,207.53
2018-05-25T02:57:08.364Z,202.93
2018-05-25T02:59:42.601Z,206.70
2018-05-25T03:02:09.148Z,181.20
2018-05-25T03:04:35.612Z,189.97
2018-05-25T03:07:02.838Z,170.07
2018-05-25T03:09:42.826Z,152.87
2018-05-25T03:12:09.355Z,164.33
2018-05-25T03:14:35.879Z,173.03
2018-05-25T03:17:02.489Z,186.00
2018-05-25T03:19:30.337Z,188.83
2018-05-25T03:21:56.896Z,181.83
2018-05-25T03:24:24.146Z,135.73
2018-05-25T03:26:50.676Z,184.63
2018-05-25T03:29:17.938Z,162.93
2018-05-25T03:31:44.478Z,164.87
2018-05-25T03:34:11.004Z,171.37
2018-05-25T03:36:38.270Z,156.17
2018-05-25T03:39:05.567Z,151.93
2018-05-25T03:41:32.059Z,166.70
2018-05-25T03:43:58.634Z,157.27
2018-05-25T03:46:25.170Z,126.23
2018-05-25T03:48:51.745Z,154.60
2018-05-25T03:51:18.302Z,166.63
2018-05-25T03:53:44.854Z,163.67
2018-05-25T03:56:11.391Z,178.63
2018-05-25T03:58:50.049Z,194.13
2018-05-25T04:01:29.371Z,152.93
2018-05-25T04:03:55.961Z,177.13
2018-05-25T04:06:22.476Z,167.50
2018-05-25T04:08:49.051Z,159.63
2018-05-25T04:11:15.650Z,155.37
2018-05-25T04:13:42.103Z,136.17
2018-05-25T04:16:08.578Z,140.67
2018-05-25T04:18:35.781Z,144.77
2018-05-25T04:21:02.229Z,154.57
2018-05-25T04:23:28.683Z,156.57
2018-05-25T04:25:55.836Z,146.40
2018-05-25T04:28:23.040Z,184.97
2018-05-25T04:30:49.456Z,168.53
2018-05-25T04:33:15.913Z,186.00
2018-05-25T04:35:42.351Z,170.60
2018-05-25T04:38:08.777Z,170.40
2018-05-25T04:40:35.203Z,162.83
2018-05-25T04:43:01.747Z,170.07
2018-05-25T04:45:28.215Z,165.63
2018-05-25T04:47:54.645Z,174.17
2018-05-25T04:50:21.859Z,170.30
2018-05-25T04:52:48.292Z,176.17
2018-05-25T04:55:15.534Z,177.70
2018-05-25T04:57:42.009Z,187.80
2018-05-25T05:00:09.221Z,179.40
2018-05-25T05:02:35.622Z,182.27
2018-05-25T05:05:02.916Z,180.20
2018-05-25T05:09:55.559Z,154.83
2018-05-25T05:12:22.759Z,171.60
2018-05-25T05:14:49.255Z,173.57
2018-05-25T05:17:15.748Z,156.87
2018-05-25T05:19:44.272Z,162.20
2018-05-25T05:22:15.096Z,159.83
2018-05-25T05:24:41.603Z,169.47
2018-05-25T05:27:08.046Z,161.60
2018-05-25T05:29:35.444Z,167.00
2018-05-25T05:32:01.887Z,158.93
2018-05-25T05:34:28.313Z,169.63
2018-05-25T05:36:54.731Z,171.47
2018-05-25T05:39:21.168Z,180.50
2018-05-25T05:41:48.336Z,172.70
2018-05-25T05:44:14.760Z,176.57
2018-05-25T05:46:41.154Z,192.47
2018-05-25T05:49:07.577Z,208.33
2018-05-25T05:51:33.967Z,191.73
2018-05-25T05:54:00.396Z,184.10
2018-05-25T05:56:26.819Z,181.50
2018-05-25T05:58:53.949Z,186.37
2018-05-25T06:01:22.127Z,177.43
2018-05-25T06:03:49.330Z,163.23
2018-05-25T06:06:15.768Z,161.20
2018-05-25T06:08:42.202Z,164.57
2018-05-25T06:11:08.615Z,158.63
2018-05-25T06:16:27.726Z,155.77
2018-05-25T06:19:29.021Z,151.63
2018-05-25T06:21:55.527Z,156.43
2018-05-25T06:24:22.690Z,157.33
2018-05-25T06:26:49.820Z,165.23
2018-05-25T06:29:16.236Z,177.83
2018-05-25T06:31:42.633Z,172.30
2018-05-25T06:34:10.047Z,176.17
2018-05-25T06:40:19.572Z,129.27
2018-05-25T06:42:46.146Z,83.53
2018-05-25T06:45:12.765Z,77.37
2018-05-25T06:47:39.285Z,71.50
2018-05-25T06:50:06.575Z,68.17
2018-05-25T06:52:33.091Z,65.20
2018-05-25T06:55:00.595Z,61.67
2018-05-25T06:57:27.087Z,59.40
2018-05-25T06:59:53.596Z,62.23
2018-05-25T07:02:20.848Z,56.20
2018-05-25T07:04:48.089Z,52.87
2018-05-25T07:07:15.345Z,48.40
2018-05-25T07:09:42.629Z,49.37
2018-05-25T07:12:09.142Z,47.90
2018-05-25T07:14:36.452Z,45.83
2018-05-25T07:17:02.995Z,46.20
2018-05-25T07:19:29.569Z,50.27
2018-05-25T07:21:56.105Z,44.97
2018-05-25T07:24:23.358Z,44.50
2018-05-25T07:26:49.925Z,42.87
2018-05-25T07:29:17.173Z,43.37
2018-05-25T07:31:43.689Z,42.50
2018-05-25T07:34:10.310Z,43.97
2018-05-25T07:36:36.856Z,43.10
2018-05-25T07:39:05.029Z,42.47
2018-05-25T07:41:31.423Z,39.90
2018-05-25T07:43:57.815Z,35.07
2018-05-25T07:46:24.221Z,37.10
2018-05-25T07:48:51.392Z,38.57
2018-05-25T07:51:18.855Z,39.40
2018-05-25T07:53:45.300Z,38.15
2018-05-25T07:56:11.789Z,39.60
2018-05-25T07:58:38.212Z,41.70
2018-05-25T08:01:04.635Z,38.20
2018-05-25T08:03:32.627Z,38.10
2018-05-25T08:05:59.057Z,40.72
2018-05-25T08:08:26.281Z,38.13
2018-05-25T08:10:52.677Z,39.65
2018-05-25T08:13:19.137Z,37.10
2018-05-25T08:15:45.577Z,39.83
2018-05-25T08:18:12.018Z,39.03
2018-05-25T08:20:38.437Z,37.88
2018-05-25T08:23:04.897Z,39.22
2018-05-25T08:25:31.833Z,38.88
2018-05-25T08:28:06.202Z,40.28
2018-05-25T08:30:32.694Z,38.47
2018-05-25T08:32:59.397Z,39.38
2018-05-25T08:35:25.975Z,40.20
2018-05-25T08:37:53.230Z,39.53
2018-05-25T08:40:19.673Z,38.95
2018-05-25T08:42:46.799Z,39.60
2018-05-25T08:45:14.969Z,38.05
2018-05-25T08:47:41.368Z,37.47
2018-05-25T08:50:08.620Z,39.17
2018-05-25T08:52:35.035Z,38.95
2018-05-25T08:55:01.488Z,40.08
2018-05-25T08:57:27.945Z,39.95
2018-05-25T08:59:55.160Z,39.78
2018-05-25T09:02:21.587Z,36.92
2018-05-25T09:04:48.063Z,37.17
2018-05-25T09:07:14.472Z,34.38
2018-05-25T09:09:54.777Z,35.60
2018-05-25T09:12:21.338Z,37.83
2018-05-25T09:14:55.613Z,36.72
2018-05-25T09:17:22.046Z,37.33
2018-05-25T09:19:48.452Z,36.85
2018-05-25T09:22:14.865Z,38.00
2018-05-25T09:24:41.325Z,34.65
2018-05-25T09:27:07.767Z,37.08
2018-05-25T09:29:34.199Z,34.70
2018-05-25T09:32:00.649Z,31.83
2018-05-25T09:34:27.401Z,31.60
2018-05-25T09:36:53.923Z,30.10
2018-05-25T09:39:20.372Z,30.65
2018-05-25T09:41:47.573Z,34.30
2018-05-25T09:44:14.043Z,37.97
2018-05-25T09:46:40.640Z,36.28
2018-05-25T09:49:07.074Z,35.67
2018-05-25T09:51:33.712Z,37.38
2018-05-25T09:54:00.093Z,34.97
2018-05-25T09:56:27.423Z,35.33
2018-05-25T09:58:53.830Z,35.28
2018-05-25T10:01:22.308Z,37.35
2018-05-25T10:04:03.566Z,36.47
2018-05-25T10:06:30.213Z,34.17
2018-05-25T10:08:57.447Z,35.45
2018-05-25T10:11:24.924Z,38.58
2018-05-25T10:13:51.322Z,34.28
2018-05-25T10:16:17.732Z,35.53
2018-05-25T10:18:44.146Z,30.98
2018-05-25T10:21:11.423Z,33.20
2018-05-25T10:23:37.828Z,37.10
2018-05-25T10:26:05.140Z,34.20
2018-05-25T10:28:31.605Z,34.70
2018-05-25T10:30:58.799Z,32.63
2018-05-25T10:33:26.619Z,36.72
2018-05-25T11:20:51.347Z,43.75
2018-05-25T11:23:18.036Z,44.03
2018-05-25T11:25:45.446Z,42.10
2018-05-25T11:28:12.051Z,41.63
2018-05-25T11:30:38.621Z,40.65
2018-05-25T11:33:05.204Z,40.90
2018-05-25T11:35:31.712Z,40.58
2018-05-25T11:37:58.246Z,42.58
2018-05-25T11:40:24.783Z,41.37
2018-05-25T11:42:51.330Z,37.80
2018-05-25T11:45:17.854Z,46.33
2018-05-25T11:47:45.206Z,46.88
2018-05-25T11:50:11.726Z,47.70
2018-05-25T11:52:38.279Z,45.72
2018-05-25T11:55:04.811Z,44.17
2018-05-25T11:57:31.338Z,42.90
2018-05-25T11:59:57.880Z,43.72
2018-05-25T12:02:24.394Z,43.33
2018-05-25T12:04:50.877Z,42.58
2018-05-25T12:07:18.213Z,39.50
2018-05-25T12:09:45.496Z,39.83
2018-05-25T12:12:12.800Z,39.63
2018-05-25T12:14:39.336Z,39.25
2018-05-25T12:17:05.839Z,40.35
2018-05-25T12:19:32.375Z,42.42
2018-05-25T12:24:24.287Z,55.10
2018-05-25T12:26:51.466Z,68.18
2018-05-25T12:29:17.879Z,70.35
2018-05-25T12:35:14.714Z,89.85
2018-05-25T12:37:41.134Z,82.40
2018-05-25T12:40:07.565Z,82.45
2018-05-25T12:42:33.966Z,78.45
2018-05-25T12:45:11.415Z,83.62
2018-05-25T12:47:38.581Z,76.30
2018-05-25T12:50:05.856Z,81.93
2018-05-25T12:52:32.355Z,74.82
2018-05-25T12:54:58.893Z,81.28
2018-05-25T12:57:25.294Z,79.00
2018-05-25T12:59:53.773Z,75.70
2018-05-25T13:02:20.263Z,78.10
2018-05-25T13:04:46.673Z,80.45
2018-05-25T13:07:13.072Z,77.85
2018-05-25T13:09:39.701Z,87.77
2018-05-25T13:12:06.108Z,79.45
2018-05-25T13:14:32.953Z,76.43
2018-05-25T13:16:59.553Z,80.85
2018-05-25T13:19:26.897Z,82.65
2018-05-25T13:21:53.305Z,79.40
2018-05-25T13:24:19.932Z,78.53
2018-05-25T13:26:46.329Z,78.28
2018-05-25T13:29:12.791Z,78.12
2018-05-25T13:31:39.215Z,81.90
2018-05-25T13:34:05.761Z,81.37
2018-05-25T13:36:32.330Z,77.85
2018-05-25T13:38:58.759Z,78.45
2018-05-25T13:41:25.351Z,86.55
2018-05-25T13:43:51.819Z,78.68
2018-05-25T13:46:19.288Z,82.90
2018-05-25T13:48:46.488Z,82.85
2018-05-25T13:51:12.966Z,83.22
2018-05-25T13:58:32.155Z,81.55
2018-05-25T14:00:58.634Z,81.78
2018-05-25T14:03:25.893Z,74.90
2018-05-25T14:06:13.395Z,79.43
2018-05-25T14:08:39.982Z,83.15
2018-05-25T14:11:06.512Z,83.45
2018-05-25T14:13:33.788Z,79.40
2018-05-25T14:16:00.411Z,81.70
2018-05-25T14:18:26.965Z,79.87
2018-05-25T14:20:54.481Z,81.55
2018-05-25T14:23:21.760Z,80.00
2018-05-25T14:26:02.362Z,78.75
2018-05-25T14:28:28.956Z,82.65
2018-05-25T14:30:55.656Z,81.97
2018-05-25T14:33:22.196Z,74.10
2018-05-25T14:35:50.498Z,79.07
2018-05-25T14:38:17.151Z,76.15
2018-05-25T14:40:45.745Z,79.10
2018-05-25T14:43:13.066Z,80.47
2018-05-25T14:45:47.350Z,78.47
2018-05-25T14:48:14.039Z,77.55
2018-05-25T14:50:40.683Z,78.10
2018-05-25T14:53:07.258Z,76.82
2018-05-25T14:55:33.897Z,98.30
2018-05-25T14:58:00.416Z,83.45
2018-05-25T15:00:27.045Z,85.28
2018-05-25T15:02:53.631Z,83.80
2018-05-25T15:05:20.210Z,83.15
2018-05-25T15:07:46.756Z,82.20
2018-05-25T15:10:13.237Z,74.80
2018-05-25T15:12:39.701Z,77.53
2018-05-25T15:15:06.136Z,72.25
2018-05-25T15:17:33.331Z,68.55
2018-05-25T15:19:59.825Z,78.85
2018-05-25T15:22:26.404Z,65.53
2018-05-25T15:24:52.850Z,80.72
2018-05-25T15:27:19.323Z,68.95
2018-05-25T15:29:46.497Z,78.00
2018-05-25T15:32:12.950Z,80.30
2018-05-25T15:34:39.397Z,76.30
2018-05-25T15:37:37.045Z,71.78
2018-05-25T15:40:03.805Z,75.07
2018-05-25T15:42:30.408Z,84.00
2018-05-25T15:44:57.018Z,81.25
2018-05-25T15:47:23.559Z,77.45
2018-05-25T15:49:50.127Z,81.18
2018-05-25T15:52:16.672Z,79.80
2018-05-25T15:54:43.352Z,81.70
2018-05-25T15:57:09.888Z,79.93
2018-05-25T15:59:36.553Z,79.78
2018-05-25T16:02:04.623Z,86.68
2018-05-25T16:04:31.285Z,85.32
2018-05-25T16:06:57.848Z,84.70
2018-05-25T16:09:24.416Z,83.18
2018-05-25T16:11:52.036Z,77.45
2018-05-25T16:14:19.089Z,85.80
2018-05-25T16:16:45.906Z,75.80
2018-05-25T16:19:13.656Z,79.60
2018-05-25T16:21:40.310Z,74.70
2018-05-25T16:24:06.917Z,71.25
2018-05-25T16:26:33.452Z,71.35
2018-05-25T16:29:00.835Z,71.32
2018-05-25T16:31:27.411Z,69.10
2018-05-25T16:33:53.974Z,75.15
2018-05-25T16:36:21.269Z,72.00
2018-05-25T16:38:47.825Z,74.18
2018-05-25T16:41:25.784Z,61.45
2018-05-25T16:43:56.218Z,68.95
2018-05-25T16:46:22.615Z,70.25
2018-05-25T16:48:50.053Z,75.12
2018-05-25T16:51:16.528Z,70.32
2018-05-25T16:53:47.367Z,67.57
2018-05-25T16:56:13.828Z,68.72
2018-05-25T16:58:41.068Z,73.40
2018-05-25T17:01:08.355Z,63.92
2018-05-25T17:03:36.606Z,68.43
2018-05-25T17:06:03.284Z,62.78
2018-05-25T17:08:29.767Z,67.85
2018-05-25T17:10:56.207Z,72.97
2018-05-25T17:13:22.633Z,68.97
2018-05-25T17:15:49.817Z,69.10
2018-05-25T17:18:16.254Z,66.95
2018-05-25T17:20:42.690Z,66.07
2018-05-25T17:23:09.147Z,70.30
2018-05-25T17:25:35.581Z,69.10
2018-05-25T17:28:02.055Z,66.10
2018-05-25T17:30:29.249Z,72.18
2018-05-25T17:32:55.676Z,70.70
2018-05-25T17:35:22.104Z,71.22
2018-05-25T17:37:48.565Z,79.47
2018-05-25T17:40:14.981Z,77.55
2018-05-25T17:42:41.386Z,78.05
2018-05-25T17:45:08.574Z,80.28
2018-05-25T17:47:34.991Z,77.43
2018-05-25T17:50:01.452Z,79.53
2018-05-25T17:52:27.885Z,80.28
2018-05-25T17:54:54.354Z,81.15
2018-05-25T17:57:21.538Z,78.03
2018-05-25T17:59:47.963Z,79.30
2018-05-25T18:02:14.377Z,79.75
2018-05-25T18:04:42.530Z,79.22
2018-05-25T18:07:21.420Z,77.87
2018-05-25T18:10:23.177Z,79.62
2018-05-25T18:12:49.770Z,84.50
2018-05-25T18:15:16.333Z,74.62
2018-05-25T18:17:42.862Z,73.90
2018-05-25T18:20:09.370Z,82.45
2018-05-25T18:22:35.977Z,80.53
2018-05-25T18:25:03.297Z,77.43
2018-05-25T18:27:29.808Z,84.53
2018-05-25T18:29:56.388Z,74.85
2018-05-25T18:32:23.654Z,83.00
2018-05-25T18:34:50.191Z,83.90
2018-05-25T18:37:17.735Z,79.70
2018-05-25T18:39:45.042Z,81.33
2018-05-25T18:42:11.578Z,77.00
2018-05-25T18:44:38.101Z,85.37
2018-05-25T18:47:04.727Z,88.17
2018-05-25T18:49:31.254Z,80.73
2018-05-25T18:51:57.792Z,74.73
2018-05-25T18:54:33.414Z,82.77
2018-05-25T18:56:59.948Z,90.97
2018-05-25T18:59:27.201Z,91.13
2018-05-25T19:01:53.782Z,101.30
2018-05-25T19:04:20.328Z,98.93
2018-05-25T19:06:46.985Z,108.53
2018-05-25T19:09:13.530Z,110.27
2018-05-25T19:14:15.736Z,107.83
2018-05-25T19:16:42.982Z,105.20
2018-05-25T19:19:09.457Z,99.67
2018-05-25T19:21:35.876Z,118.13
2018-05-25T19:24:03.080Z,110.60
2018-05-25T19:26:29.537Z,118.70
2018-05-25T19:28:55.944Z,128.03
2018-05-25T19:31:22.343Z,120.23
2018-05-25T19:33:48.797Z,116.20
2018-05-25T19:36:15.194Z,124.57
2018-05-25T19:38:42.467Z,114.10
2018-05-25T19:41:08.865Z,109.83
2018-05-25T19:43:36.063Z,114.23
2018-05-25T19:46:02.554Z,115.63
2018-05-25T19:48:28.984Z,106.77
2018-05-25T19:50:56.167Z,108.23
2018-05-25T19:53:22.571Z,100.97
2018-05-25T19:55:49.000Z,92.83
2018-05-25T19:58:16.215Z,108.23
2018-05-25T20:00:43.623Z,106.30
2018-05-25T20:03:10.044Z,106.53
2018-05-25T20:05:36.451Z,105.77
2018-05-25T20:08:03.630Z,112.43
2018-05-25T20:10:31.059Z,120.27
2018-05-25T20:12:58.202Z,107.20
2018-05-25T20:15:54.903Z,103.83
2018-05-25T20:18:29.005Z,101.40
2018-05-25T20:20:56.252Z,103.17
2018-05-25T20:23:22.752Z,104.97
2018-05-25T20:25:49.218Z,98.27
2018-05-25T20:28:15.659Z,100.13
2018-05-25T20:30:42.832Z,103.97
2018-05-25T20:33:09.277Z,103.20
2018-05-25T20:35:35.745Z,111.13
2018-05-25T20:38:03.219Z,121.03
2018-05-25T20:40:30.392Z,112.37
2018-05-25T20:42:56.855Z,114.63
2018-05-25T20:45:23.278Z,116.93
2018-05-25T20:47:49.755Z,123.17
2018-05-25T20:50:16.192Z,123.63
2018-05-25T20:52:42.614Z,123.03
2018-05-25T20:55:09.821Z,115.57
2018-05-25T20:57:36.309Z,118.03
2018-05-25T21:00:03.547Z,117.63
2018-05-25T21:02:29.983Z,118.77
2018-05-25T21:04:56.408Z,116.30
2018-05-25T21:07:31.211Z,119.07
2018-05-25T21:09:58.388Z,121.57
2018-05-25T21:12:24.867Z,115.37
2018-05-25T21:14:51.282Z,128.60
2018-05-25T21:17:17.705Z,124.47
2018-05-25T21:19:44.159Z,135.47
2018-05-25T21:22:10.583Z,129.17
2018-05-25T21:24:37.055Z,123.63
2018-05-25T21:27:03.489Z,127.00
2018-05-25T21:29:29.933Z,120.30
2018-05-25T21:31:56.315Z,126.27
2018-05-25T21:34:22.849Z,127.80
2018-05-25T21:36:49.264Z,121.80
2018-05-25T21:39:16.488Z,120.77
2018-05-25T21:41:43.684Z,127.03
2018-05-25T21:44:10.131Z,107.73
2018-05-25T21:46:36.544Z,116.53
2018-05-25T21:49:03.008Z,113.93
2018-05-25T21:51:29.425Z,122.17
2018-05-25T21:53:55.869Z,127.30
2018-05-25T21:56:22.356Z,99.50
2018-05-25T21:58:49.539Z,122.37
2018-05-25T22:01:15.970Z,122.33
2018-05-25T22:03:42.418Z,110.53
2018-05-25T22:06:08.832Z,126.77
2018-05-25T22:08:35.244Z,128.13
2018-05-25T22:11:01.708Z,119.30
2018-05-25T22:13:28.181Z,134.10
2018-05-25T22:15:54.631Z,125.23
2018-05-25T22:18:21.034Z,129.67
2018-05-25T22:20:47.461Z,113.47
2018-05-25T22:23:22.564Z,128.20
2018-05-25T22:25:49.083Z,120.00
2018-05-25T22:28:15.507Z,115.50
2018-05-25T22:30:41.951Z,122.10
2018-05-25T22:33:08.328Z,124.43
2018-05-25T22:35:35.502Z,129.13
2018-05-25T22:38:01.946Z,128.00
2018-05-25T22:40:28.340Z,119.07
2018-05-25T22:43:07.664Z,100.80
2018-05-25T22:45:46.219Z,127.80
2018-05-25T22:48:24.658Z,126.07
2018-05-25T22:51:03.124Z,127.63
2018-05-25T22:53:36.068Z,133.50
2018-05-25T22:56:02.501Z,126.07
2018-05-25T22:58:29.656Z,129.73
2018-05-25T23:00:57.090Z,122.23
2018-05-25T23:03:23.550Z,133.10
2018-05-25T23:05:49.973Z,116.37
2018-05-25T23:08:16.380Z,133.87
2018-05-25T23:10:42.814Z,127.33
2018-05-25T23:13:09.206Z,135.13
2018-05-25T23:15:36.396Z,131.00
2018-05-25T23:18:02.853Z,129.10
2018-05-25T23:20:29.289Z,131.33
2018-05-25T23:22:55.684Z,134.57
2018-05-25T23:25:22.120Z,136.07
2018-05-25T23:27:48.753Z,130.23
2018-05-25T23:30:15.378Z,142.40
2018-05-25T23:32:41.841Z,130.50
2018-05-25T23:35:08.297Z,129.97
2018-05-25T23:37:36.444Z,136.07
2018-05-25T23:40:02.962Z,138.40
2018-05-25T23:42:29.440Z,130.67
2018-05-25T23:44:55.946Z,139.53
2018-05-25T23:47:22.437Z,139.43
2018-05-25T23:49:48.971Z,134.27
2018-05-25T23:52:15.432Z,125.57
2018-05-25T23:54:41.911Z,137.63
2018-05-25T23:57:09.111Z,149.37
2018-05-25T23:59:35.566Z,148.53
